createdAt,value
2022-11-26T00:01:14.610Z,95.80
2022-11-26T00:03:42.353Z,110.37
2022-11-26T00:06:38.458Z,77.27
2022-11-26T00:09:11.841Z,84.47
2022-11-26T00:11:39.295Z,94.43
2022-11-26T00:14:15.639Z,96.53
2022-11-26T00:16:43.730Z,93.47
2022-11-26T00:19:11.201Z,98.60
2022-11-26T00:21:40.554Z,121.27
2022-11-26T00:24:27.808Z,99.97
2022-11-26T00:26:56.850Z,86.83
2022-11-26T00:29:24.277Z,108.50
2022-11-26T00:31:51.743Z,99.07
2022-11-26T00:34:19.219Z,87.37
2022-11-26T00:36:47.078Z,105.00
2022-11-26T00:39:19.714Z,90.10
2022-11-26T00:41:51.276Z,90.53
2022-11-26T00:44:20.860Z,96.27
2022-11-26T00:46:48.542Z,100.30
2022-11-26T00:49:16.653Z,95.17
2022-11-26T00:51:44.302Z,109.27
2022-11-26T00:54:15.205Z,90.63
2022-11-26T00:56:42.620Z,99.33
2022-11-26T00:59:14.726Z,94.40
2022-11-26T01:01:42.170Z,118.07
2022-11-26T01:04:09.458Z,103.77
2022-11-26T01:06:42.819Z,97.00
2022-11-26T01:09:21.654Z,101.67
2022-11-26T01:11:53.720Z,106.13
2022-11-26T01:14:24.656Z,98.60
2022-11-26T01:16:54.979Z,111.10
2022-11-26T01:19:22.478Z,101.67
2022-11-26T01:21:49.869Z,83.80
2022-11-26T01:24:17.291Z,104.30
2022-11-26T01:26:45.576Z,103.83
2022-11-26T01:29:17.461Z,106.83
2022-11-26T01:31:45.062Z,106.00
2022-11-26T01:34:12.794Z,96.43
2022-11-26T01:36:40.991Z,110.67
2022-11-26T01:39:15.698Z,116.47
2022-11-26T01:41:49.278Z,129.03
2022-11-26T01:44:19.558Z,97.23
2022-11-26T01:46:49.815Z,105.10
2022-11-26T01:49:17.586Z,90.30
2022-11-26T01:51:45.762Z,103.53
2022-11-26T01:54:13.691Z,103.80
2022-11-26T01:56:50.827Z,101.73
2022-11-26T01:59:20.636Z,108.13
2022-11-26T02:01:49.738Z,105.07
2022-11-26T02:04:19.201Z,103.67
2022-11-26T02:06:48.728Z,102.27
2022-11-26T02:09:16.547Z,94.43
2022-11-26T02:11:44.321Z,98.50
2022-11-26T02:14:14.470Z,112.53
2022-11-26T02:16:58.367Z,118.93
2022-11-26T02:19:28.632Z,90.27
2022-11-26T02:22:06.730Z,100.00
2022-11-26T02:24:40.332Z,105.97
2022-11-26T02:27:26.725Z,109.83
2022-11-26T02:30:00.713Z,97.10
2022-11-26T02:32:34.905Z,104.43
2022-11-26T02:35:06.188Z,98.33
2022-11-26T02:37:40.413Z,99.03
2022-11-26T02:40:08.870Z,98.87
2022-11-26T02:42:36.929Z,94.63
2022-11-26T02:45:10.509Z,93.60
2022-11-26T02:47:39.408Z,86.67
2022-11-26T02:50:09.219Z,80.43
2022-11-26T02:52:37.914Z,84.00
2022-11-26T02:55:07.608Z,101.53
2022-11-26T02:57:37.670Z,86.60
2022-11-26T03:00:06.403Z,104.00
2022-11-26T03:02:37.269Z,100.97
2022-11-26T03:05:05.475Z,98.20
2022-11-26T03:07:33.194Z,88.67
2022-11-26T03:10:02.811Z,89.77
2022-11-26T03:12:30.595Z,89.30
2022-11-26T03:14:58.025Z,107.07
2022-11-26T03:17:25.412Z,97.87
2022-11-26T03:19:52.973Z,103.00
2022-11-26T03:22:20.370Z,100.13
2022-11-26T03:24:47.891Z,82.47
2022-11-26T03:27:15.248Z,79.17
2022-11-26T03:29:42.613Z,82.03
2022-11-26T03:32:09.970Z,94.00
2022-11-26T03:34:37.532Z,86.13
2022-11-26T03:37:05.064Z,81.50
2022-11-26T03:39:32.413Z,93.53
2022-11-26T03:41:59.788Z,86.77
2022-11-26T03:44:27.174Z,81.07
2022-11-26T03:46:54.635Z,93.03
2022-11-26T03:49:22.058Z,100.73
2022-11-26T03:51:49.583Z,85.13
2022-11-26T03:54:16.996Z,83.80
2022-11-26T03:56:44.340Z,76.37
2022-11-26T03:59:11.813Z,94.03
2022-11-26T04:01:39.285Z,76.43
2022-11-26T04:04:06.664Z,90.57
2022-11-26T04:06:33.984Z,85.00
2022-11-26T04:09:01.442Z,85.57
2022-11-26T04:11:28.784Z,94.87
2022-11-26T04:13:56.094Z,81.27
2022-11-26T04:16:23.478Z,88.07
2022-11-26T04:18:50.808Z,79.23
2022-11-26T04:21:18.178Z,85.77
2022-11-26T04:23:45.520Z,74.77
2022-11-26T04:26:12.915Z,68.93
2022-11-26T04:28:40.386Z,65.20
2022-11-26T04:31:07.805Z,69.23
2022-11-26T04:33:35.270Z,76.40
2022-11-26T04:36:02.875Z,71.60
2022-11-26T04:38:30.524Z,63.70
2022-11-26T04:40:57.885Z,67.57
2022-11-26T04:43:25.230Z,72.87
2022-11-26T04:45:52.664Z,72.20
2022-11-26T04:48:20.169Z,66.23
2022-11-26T04:50:47.729Z,68.37
2022-11-26T04:53:15.898Z,75.23
2022-11-26T04:55:43.320Z,70.93
2022-11-26T04:58:10.657Z,83.33
2022-11-26T05:00:39.367Z,75.60
2022-11-26T05:03:07.644Z,86.60
2022-11-26T05:05:35.251Z,73.30
2022-11-26T05:08:02.678Z,65.57
2022-11-26T05:10:30.054Z,68.03
2022-11-26T05:12:57.400Z,65.87
2022-11-26T05:15:24.761Z,71.40
2022-11-26T05:17:52.133Z,62.87
2022-11-26T05:20:19.753Z,71.93
2022-11-26T05:22:47.179Z,58.30
2022-11-26T05:25:14.664Z,70.93
2022-11-26T05:27:42.067Z,72.27
2022-11-26T05:30:09.728Z,64.70
2022-11-26T05:32:37.131Z,63.47
2022-11-26T05:35:04.790Z,81.20
2022-11-26T05:37:32.153Z,80.53
2022-11-26T05:39:59.539Z,84.97
2022-11-26T05:42:26.919Z,67.70
2022-11-26T05:44:54.307Z,64.83
2022-11-26T05:47:21.668Z,74.77
2022-11-26T05:49:49.080Z,71.53
2022-11-26T05:52:16.495Z,75.07
2022-11-26T05:54:43.923Z,66.07
2022-11-26T05:57:11.248Z,62.83
2022-11-26T05:59:38.596Z,81.85
2022-11-26T06:02:09.459Z,81.13
2022-11-26T06:04:37.513Z,78.27
2022-11-26T06:07:05.117Z,93.33
2022-11-26T06:09:32.820Z,72.30
2022-11-26T06:12:01.148Z,79.90
2022-11-26T06:14:28.555Z,81.73
2022-11-26T06:16:55.987Z,71.10
2022-11-26T06:19:23.369Z,84.43
2022-11-26T06:21:50.931Z,94.07
2022-11-26T06:24:18.296Z,95.63
2022-11-26T06:26:45.643Z,79.90
2022-11-26T06:29:13.213Z,82.37
2022-11-26T06:31:40.657Z,87.70
2022-11-26T06:34:08.040Z,89.83
2022-11-26T06:36:35.404Z,85.00
2022-11-26T06:39:02.735Z,92.07
2022-11-26T06:41:30.106Z,95.17
2022-11-26T06:43:59.109Z,87.17
2022-11-26T06:46:26.663Z,93.63
2022-11-26T06:48:54.018Z,94.73
2022-11-26T06:51:21.994Z,93.80
2022-11-26T06:53:49.823Z,94.20
2022-11-26T06:56:19.090Z,102.43
2022-11-26T06:58:47.351Z,91.23
2022-11-26T07:01:19.303Z,84.47
2022-11-26T07:03:46.955Z,88.87
2022-11-26T07:06:20.355Z,94.87
2022-11-26T07:08:48.221Z,98.00
2022-11-26T07:11:15.824Z,82.57
2022-11-26T07:13:43.319Z,84.37
2022-11-26T07:16:11.225Z,85.63
2022-11-26T07:18:38.623Z,84.47
2022-11-26T07:21:07.116Z,89.57
2022-11-26T07:23:34.495Z,87.20
2022-11-26T07:26:02.289Z,88.57
2022-11-26T07:28:30.322Z,85.47
2022-11-26T07:31:14.510Z,93.77
2022-11-26T07:33:43.727Z,98.50
2022-11-26T07:36:14.481Z,97.50
2022-11-26T07:38:41.953Z,108.90
2022-11-26T07:41:10.684Z,108.20
2022-11-26T07:43:38.906Z,89.10
2022-11-26T07:46:07.469Z,90.70
2022-11-26T07:48:35.277Z,97.97
2022-11-26T07:51:02.990Z,101.20
2022-11-26T07:53:31.209Z,97.13
2022-11-26T07:55:58.917Z,109.70
2022-11-26T07:58:29.521Z,118.77
2022-11-26T08:00:56.889Z,105.97
2022-11-26T08:03:24.272Z,127.37
2022-11-26T08:05:51.657Z,113.57
2022-11-26T08:08:19.024Z,118.57
2022-11-26T08:10:46.400Z,125.87
2022-11-26T08:13:13.763Z,100.77
2022-11-26T08:15:41.129Z,119.70
2022-11-26T08:18:08.762Z,120.03
2022-11-26T08:20:36.138Z,117.87
2022-11-26T08:23:03.465Z,125.73
2022-11-26T08:25:30.861Z,132.23
2022-11-26T08:27:58.309Z,117.07
2022-11-26T08:30:25.725Z,146.03
2022-11-26T08:32:53.077Z,139.47
2022-11-26T08:35:20.420Z,117.00
2022-11-26T08:37:47.763Z,124.33
2022-11-26T08:40:15.129Z,123.00
2022-11-26T08:42:42.484Z,124.90
2022-11-26T08:45:10.009Z,124.17
2022-11-26T08:47:37.403Z,121.43
2022-11-26T08:50:05.114Z,113.87
2022-11-26T08:52:32.471Z,108.93
2022-11-26T08:54:59.802Z,133.83
2022-11-26T08:57:27.167Z,119.30
2022-11-26T08:59:55.952Z,107.10
2022-11-26T09:02:23.716Z,103.73
2022-11-26T09:04:51.057Z,109.93
2022-11-26T09:07:18.522Z,121.43
2022-11-26T09:09:45.963Z,96.07
2022-11-26T09:12:13.329Z,106.80
2022-11-26T09:14:41.387Z,98.60
2022-11-26T09:17:10.017Z,105.80
2022-11-26T09:19:37.430Z,107.47
2022-11-26T09:22:05.120Z,111.87
2022-11-26T09:24:32.507Z,104.53
2022-11-26T09:27:04.279Z,98.93
2022-11-26T09:29:34.793Z,113.07
2022-11-26T09:32:22.648Z,92.83
2022-11-26T09:34:49.577Z,97.73
2022-11-26T09:37:16.954Z,88.03
2022-11-26T09:39:44.302Z,87.93
2022-11-26T09:42:33.994Z,91.00
2022-11-26T09:45:19.947Z,102.30
2022-11-26T09:47:49.404Z,83.10
2022-11-26T09:50:17.307Z,103.03
2022-11-26T09:53:02.249Z,88.13
2022-11-26T09:55:34.407Z,97.13
2022-11-26T09:58:04.674Z,80.07
2022-11-26T10:00:34.512Z,87.60
2022-11-26T10:03:01.953Z,88.70
2022-11-26T10:05:34.967Z,96.67
2022-11-26T10:08:13.039Z,90.93
2022-11-26T10:10:54.508Z,92.03
2022-11-26T10:13:39.137Z,83.57
2022-11-26T10:16:11.984Z,96.73
2022-11-26T10:18:45.659Z,94.80
2022-11-26T10:21:13.574Z,96.73
2022-11-26T10:23:45.385Z,83.13
2022-11-26T10:26:15.697Z,75.17
2022-11-26T10:28:47.608Z,71.53
2022-11-26T10:31:28.712Z,70.07
2022-11-26T10:33:57.569Z,68.03
2022-11-26T10:36:32.913Z,72.07
2022-11-26T10:39:00.312Z,82.63
2022-11-26T10:41:30.481Z,72.83
2022-11-26T10:44:17.775Z,83.53
2022-11-26T10:46:45.227Z,82.20
2022-11-26T10:49:17.003Z,71.20
2022-11-26T10:51:48.017Z,70.03
2022-11-26T10:54:24.054Z,63.57
2022-11-26T10:56:55.314Z,59.37
2022-11-26T10:59:25.765Z,61.47
2022-11-26T11:01:56.313Z,79.27
2022-11-26T11:04:30.768Z,71.30
2022-11-26T11:06:58.406Z,71.10
2022-11-26T11:09:31.689Z,73.43
2022-11-26T11:12:18.531Z,63.80
2022-11-26T11:14:46.908Z,71.60
2022-11-26T11:17:26.523Z,59.97
2022-11-26T11:19:53.999Z,45.33
2022-11-26T11:22:22.351Z,46.77
2022-11-26T11:24:49.759Z,52.40
2022-11-26T11:27:24.398Z,46.50
2022-11-26T11:29:52.175Z,49.60
2022-11-26T11:32:31.630Z,54.37
2022-11-26T11:35:12.662Z,49.57
2022-11-26T11:37:50.243Z,42.67
2022-11-26T11:40:23.400Z,51.13
2022-11-26T11:42:51.880Z,43.70
2022-11-26T11:45:25.546Z,54.97
2022-11-26T11:47:57.010Z,48.63
2022-11-26T11:50:34.692Z,48.37
2022-11-26T11:53:10.974Z,47.87
2022-11-26T11:55:41.327Z,48.30
2022-11-26T11:58:25.671Z,35.53
2022-11-26T12:00:56.949Z,45.53
2022-11-26T12:03:43.848Z,42.47
2022-11-26T12:06:30.184Z,52.47
2022-11-26T12:09:08.825Z,42.63
2022-11-26T12:11:48.341Z,40.73
2022-11-26T12:14:21.649Z,56.57
2022-11-26T12:16:51.742Z,54.70
2022-11-26T12:19:27.919Z,47.57
2022-11-26T12:22:02.776Z,60.20
2022-11-26T12:24:38.967Z,51.73
2022-11-26T12:27:11.379Z,37.93
2022-11-26T12:29:43.487Z,57.73
2022-11-26T12:32:10.870Z,47.90
2022-11-26T12:34:44.077Z,39.60
2022-11-26T12:37:20.075Z,46.17
2022-11-26T12:40:06.256Z,44.27
2022-11-26T12:42:45.297Z,47.67
2022-11-26T12:45:23.273Z,48.20
2022-11-26T12:47:55.812Z,45.10
2022-11-26T12:50:41.470Z,47.73
2022-11-26T12:53:08.836Z,54.50
2022-11-26T12:56:05.897Z,37.30
2022-11-26T12:58:44.015Z,37.10
2022-11-26T13:01:12.334Z,51.47
2022-11-26T13:03:40.883Z,45.63
2022-11-26T13:06:17.059Z,45.63
2022-11-26T13:08:49.557Z,42.73
2022-11-26T13:11:27.136Z,39.50
2022-11-26T13:14:03.880Z,38.30
2022-11-26T13:16:35.571Z,42.57
2022-11-26T13:19:07.058Z,45.63
2022-11-26T13:21:34.474Z,45.30
2022-11-26T13:24:13.581Z,40.87
2022-11-26T13:26:50.636Z,43.53
2022-11-26T13:29:17.984Z,35.80
2022-11-26T13:32:09.839Z,44.07
2022-11-26T13:35:06.061Z,42.90
2022-11-26T13:37:51.737Z,43.23
2022-11-26T13:40:59.029Z,42.63
2022-11-26T13:43:49.602Z,52.70
2022-11-26T13:46:22.616Z,39.10
2022-11-26T13:48:53.176Z,47.87
2022-11-26T13:51:39.512Z,42.17
2022-11-26T13:54:32.876Z,41.97
2022-11-26T13:57:02.154Z,44.37
2022-11-26T13:59:30.574Z,42.10
2022-11-26T14:01:58.140Z,49.13
2022-11-26T14:04:25.541Z,38.40
2022-11-26T14:07:04.928Z,40.17
2022-11-26T14:09:44.801Z,34.90
2022-11-26T14:12:16.193Z,51.33
2022-11-26T14:14:45.998Z,38.83
2022-11-26T14:17:13.319Z,37.00
2022-11-26T14:19:40.701Z,51.10
2022-11-26T14:22:09.572Z,38.63
2022-11-26T14:24:56.754Z,38.40
2022-11-26T14:27:24.159Z,46.97
2022-11-26T14:29:55.828Z,43.40
2022-11-26T14:32:24.137Z,43.07
2022-11-26T14:34:52.725Z,41.97
2022-11-26T14:37:21.798Z,33.30
2022-11-26T14:39:59.717Z,46.70
2022-11-26T14:42:27.717Z,43.80
2022-11-26T14:45:16.507Z,49.80
2022-11-26T14:47:45.096Z,46.83
2022-11-26T14:50:14.503Z,40.47
2022-11-26T14:52:43.127Z,41.30
2022-11-26T14:55:19.458Z,49.97
2022-11-26T14:57:48.463Z,34.80
2022-11-26T15:00:15.775Z,42.43
2022-11-26T15:02:45.657Z,51.10
2022-11-26T15:05:18.019Z,39.23
2022-11-26T15:07:46.155Z,40.80
2022-11-26T15:10:16.323Z,52.47
2022-11-26T15:12:44.708Z,40.83
2022-11-26T15:15:31.160Z,46.67
2022-11-26T15:18:02.003Z,39.33
2022-11-26T15:20:29.559Z,36.87
2022-11-26T15:22:58.684Z,46.30
2022-11-26T15:25:27.858Z,43.47
2022-11-26T15:27:59.069Z,46.37
2022-11-26T15:30:30.888Z,46.10
2022-11-26T15:32:59.775Z,40.90
2022-11-26T15:35:27.263Z,35.60
2022-11-26T15:37:54.734Z,44.17
2022-11-26T15:40:22.359Z,37.27
2022-11-26T15:42:51.001Z,39.37
2022-11-26T15:45:20.942Z,49.30
2022-11-26T15:47:53.731Z,33.13
2022-11-26T15:50:27.491Z,41.03
2022-11-26T15:53:05.888Z,36.77
2022-11-26T15:55:35.823Z,42.43
2022-11-26T15:58:06.019Z,39.90
2022-11-26T16:00:38.223Z,37.40
2022-11-26T16:03:26.682Z,42.13
2022-11-26T16:05:56.028Z,37.77
2022-11-26T16:08:27.585Z,43.50
2022-11-26T16:10:59.300Z,30.43
2022-11-26T16:13:30.608Z,29.87
2022-11-26T16:15:57.972Z,42.17
2022-11-26T16:18:29.045Z,47.43
2022-11-26T16:21:08.067Z,35.63
2022-11-26T16:23:35.503Z,40.67
2022-11-26T16:26:10.828Z,30.57
2022-11-26T16:28:38.560Z,34.57
2022-11-26T16:31:06.106Z,46.80
2022-11-26T16:33:33.529Z,24.47
2022-11-26T16:36:01.182Z,33.13
2022-11-26T16:38:29.359Z,25.20
2022-11-26T16:40:57.066Z,19.93
2022-11-26T16:43:24.486Z,35.37
2022-11-26T16:45:55.001Z,35.40
2022-11-26T16:48:26.567Z,46.23
2022-11-26T16:50:54.679Z,34.60
2022-11-26T16:53:22.641Z,31.13
2022-11-26T16:55:50.523Z,25.87
2022-11-26T16:58:24.064Z,36.13
2022-11-26T17:00:51.563Z,29.87
2022-11-26T17:03:19.132Z,26.57
2022-11-26T17:05:46.740Z,22.67
2022-11-26T17:08:14.463Z,23.90
2022-11-26T17:10:41.807Z,29.27
2022-11-26T17:13:09.208Z,34.17
2022-11-26T17:15:36.623Z,23.23
2022-11-26T17:18:06.411Z,31.90
2022-11-26T17:20:33.854Z,32.23
2022-11-26T17:23:01.231Z,40.17
2022-11-26T17:25:28.598Z,27.93
2022-11-26T17:27:56.448Z,25.23
2022-11-26T17:30:24.766Z,24.87
2022-11-26T17:32:52.425Z,35.13
2022-11-26T17:35:19.811Z,28.27
2022-11-26T17:37:47.389Z,27.97
2022-11-26T17:40:19.073Z,32.43
2022-11-26T17:42:46.973Z,27.53
2022-11-26T17:45:14.511Z,21.50
2022-11-26T17:47:41.883Z,26.93
2022-11-26T17:50:15.890Z,31.73
2022-11-26T17:52:43.247Z,26.03
2022-11-26T17:55:10.992Z,25.37
2022-11-26T17:57:38.393Z,25.13
2022-11-26T18:00:07.689Z,20.87
2022-11-26T18:02:36.147Z,20.67
2022-11-26T18:05:03.603Z,20.67
2022-11-26T18:07:30.982Z,16.73
2022-11-26T18:09:58.415Z,27.00
2022-11-26T18:12:27.767Z,31.70
2022-11-26T18:14:57.337Z,28.70
2022-11-26T18:17:25.157Z,31.53
2022-11-26T18:19:52.565Z,32.00
2022-11-26T18:22:21.777Z,27.37
2022-11-26T18:24:57.275Z,19.33
2022-11-26T18:27:26.349Z,20.93
2022-11-26T18:29:53.849Z,33.20
2022-11-26T18:32:21.277Z,29.43
2022-11-26T18:34:51.586Z,19.60
2022-11-26T18:37:19.129Z,30.27
2022-11-26T18:39:46.578Z,37.43
2022-11-26T18:42:36.941Z,25.67
2022-11-26T18:45:01.764Z,24.83
2022-11-26T18:47:29.196Z,23.27
2022-11-26T18:49:56.573Z,25.13
2022-11-26T18:52:23.963Z,29.20
2022-11-26T18:54:51.416Z,18.97
2022-11-26T18:57:18.786Z,21.10
2022-11-26T18:59:46.755Z,29.07
2022-11-26T19:02:14.265Z,25.60
2022-11-26T19:04:41.729Z,22.90
2022-11-26T19:07:09.717Z,32.10
2022-11-26T19:09:37.877Z,42.67
2022-11-26T19:12:05.635Z,27.43
2022-11-26T19:14:33.008Z,28.40
2022-11-26T19:17:00.701Z,23.80
2022-11-26T19:19:28.344Z,19.13
2022-11-26T19:22:00.889Z,23.30
2022-11-26T19:24:29.557Z,27.13
2022-11-26T19:26:57.538Z,22.47
2022-11-26T19:29:25.091Z,21.80
2022-11-26T19:31:53.590Z,20.03
2022-11-26T19:34:21.114Z,26.03
2022-11-26T19:36:49.172Z,26.70
2022-11-26T19:39:17.320Z,21.43
2022-11-26T19:41:45.174Z,26.87
2022-11-26T19:44:12.772Z,33.70
2022-11-26T19:46:41.380Z,30.47
2022-11-26T19:49:11.803Z,18.30
2022-11-26T19:51:39.329Z,22.80
2022-11-26T19:54:07.146Z,37.90
2022-11-26T19:56:34.967Z,31.13
2022-11-26T19:59:02.862Z,28.10
2022-11-26T20:01:32.163Z,19.90
2022-11-26T20:04:01.067Z,22.77
2022-11-26T20:06:29.987Z,25.93
2022-11-26T20:09:00.728Z,24.47
2022-11-26T20:11:29.411Z,23.10
2022-11-26T20:13:57.512Z,32.63
2022-11-26T20:16:26.365Z,27.67
2022-11-26T20:18:53.907Z,26.17
2022-11-26T20:21:25.518Z,23.57
2022-11-26T20:23:53.779Z,23.70
2022-11-26T20:26:21.930Z,20.13
2022-11-26T20:28:49.947Z,28.70
2022-11-26T20:31:23.013Z,23.37
2022-11-26T20:33:52.771Z,29.50
2022-11-26T20:36:22.832Z,32.60
2022-11-26T20:38:54.518Z,30.90
2022-11-26T20:41:22.532Z,24.87
2022-11-26T20:43:54.934Z,25.97
2022-11-26T20:46:26.278Z,35.20
2022-11-26T20:48:53.804Z,33.27
2022-11-26T20:51:22.372Z,32.73
2022-11-26T20:53:50.856Z,29.00
2022-11-26T20:56:22.027Z,24.87
2022-11-26T20:58:50.045Z,33.27
2022-11-26T21:01:18.505Z,24.30
2022-11-26T21:03:45.965Z,27.17
2022-11-26T21:06:14.222Z,36.03
2022-11-26T21:08:42.068Z,35.20
2022-11-26T21:11:09.807Z,32.10
2022-11-26T21:13:38.452Z,28.97
2022-11-26T21:16:22.808Z,29.47
2022-11-26T21:18:50.175Z,36.40
2022-11-26T21:21:17.859Z,32.47
2022-11-26T21:23:45.866Z,31.03
2022-11-26T21:26:16.368Z,39.20
2022-11-26T21:28:43.903Z,35.73
2022-11-26T21:31:14.051Z,28.83
2022-11-26T21:33:41.454Z,27.80
2022-11-26T21:36:10.310Z,37.40
2022-11-26T21:38:37.849Z,27.43
2022-11-26T21:41:12.677Z,32.67
2022-11-26T21:43:41.156Z,29.40
2022-11-26T21:46:09.629Z,33.73
2022-11-26T21:48:37.124Z,36.57
2022-11-26T21:51:08.493Z,33.77
2022-11-26T21:53:36.147Z,27.37
2022-11-26T21:56:11.000Z,28.60
2022-11-26T21:58:38.339Z,37.20
2022-11-26T22:01:22.719Z,30.70
2022-11-26T22:03:51.479Z,38.13
2022-11-26T22:06:20.034Z,43.03
2022-11-26T22:08:47.751Z,30.40
2022-11-26T22:11:16.720Z,31.20
2022-11-26T22:13:44.502Z,37.97
2022-11-26T22:16:12.835Z,35.07
2022-11-26T22:18:41.408Z,36.80
2022-11-26T22:21:11.579Z,29.63
2022-11-26T22:23:39.054Z,49.40
2022-11-26T22:26:06.883Z,35.50
2022-11-26T22:28:35.056Z,37.80
2022-11-26T22:31:09.340Z,37.37
2022-11-26T22:33:36.966Z,33.07
2022-11-26T22:36:04.445Z,29.30
2022-11-26T22:38:33.131Z,41.83
2022-11-26T22:41:08.320Z,45.10
2022-11-26T22:43:35.716Z,36.30
2022-11-26T22:46:04.281Z,38.27
2022-11-26T22:48:31.761Z,51.53
2022-11-26T22:50:59.064Z,42.83
2022-11-26T22:53:26.482Z,37.43
2022-11-26T22:55:54.884Z,38.93
2022-11-26T22:58:22.901Z,39.70
2022-11-26T23:00:51.489Z,44.83
2022-11-26T23:03:20.326Z,49.27
2022-11-26T23:05:47.811Z,59.60
2022-11-26T23:08:18.919Z,39.03
2022-11-26T23:10:46.260Z,55.57
2022-11-26T23:13:13.959Z,60.97
2022-11-26T23:15:44.676Z,49.93
2022-11-26T23:18:13.064Z,46.63
2022-11-26T23:20:41.039Z,57.10
2022-11-26T23:23:08.616Z,49.57
2022-11-26T23:25:42.086Z,55.03
2022-11-26T23:28:09.583Z,58.80
2022-11-26T23:30:37.033Z,51.87
2022-11-26T23:33:04.500Z,73.10
2022-11-26T23:35:31.855Z,56.67
2022-11-26T23:37:59.136Z,58.90
2022-11-26T23:40:26.470Z,52.37
2022-11-26T23:42:53.793Z,57.47
2022-11-26T23:45:21.120Z,58.27
2022-11-26T23:47:48.412Z,54.63
2022-11-26T23:50:15.722Z,55.63
2022-11-26T23:52:42.993Z,57.50
2022-11-26T23:55:10.388Z,62.83
2022-11-26T23:57:37.695Z,54.17
